createdAt,value
2018-09-19T00:00:19.049Z,16.56
2018-09-19T00:05:30.158Z,16.54
2018-09-19T00:08:03.287Z,16.62
2018-09-19T00:10:36.282Z,16.56
2018-09-19T00:13:10.716Z,16.48
2018-09-19T00:15:43.767Z,16.37
2018-09-19T00:18:16.813Z,16.34
2018-09-19T00:20:49.632Z,16.35
2018-09-19T00:31:13.589Z,16.76
2018-09-19T00:33:46.956Z,16.85
2018-09-19T00:36:16.800Z,16.74
2018-09-19T00:38:50.666Z,16.99
2018-09-19T00:41:24.263Z,17.12
2018-09-19T00:43:57.064Z,17.20
2018-09-19T00:46:31.623Z,16.98
2018-09-19T00:49:04.387Z,16.96
2018-09-19T00:54:14.622Z,16.95
2018-09-19T00:56:47.139Z,16.94
2018-09-19T00:59:21.974Z,16.99
2018-09-19T01:04:34.301Z,17.04
2018-09-19T01:07:07.933Z,17.05
2018-09-19T01:09:40.616Z,17.02
2018-09-19T01:12:13.504Z,16.88
2018-09-19T01:14:45.643Z,16.79
2018-09-19T01:17:18.670Z,16.68
2018-09-19T01:19:56.451Z,16.71
2018-09-19T01:22:29.377Z,16.69
2018-09-19T01:25:02.005Z,16.60
2018-09-19T01:27:34.650Z,16.58
2018-09-19T01:30:07.103Z,16.66
2018-09-19T01:32:39.844Z,16.65
2018-09-19T01:35:16.163Z,16.62
2018-09-19T01:37:49.517Z,16.71
2018-09-19T01:40:22.482Z,16.69
2018-09-19T01:42:57.148Z,16.51
2018-09-19T01:45:29.374Z,16.48
2018-09-19T01:48:01.918Z,16.51
2018-09-19T01:50:37.341Z,16.48
2018-09-19T01:53:11.705Z,16.40
2018-09-19T02:06:10.231Z,16.00
2018-09-19T02:08:43.195Z,15.88
2018-09-19T02:14:14.253Z,15.88
2018-09-19T02:16:46.738Z,15.81
2018-09-19T02:21:56.783Z,15.73
2018-09-19T02:24:30.582Z,15.64
2018-09-19T02:27:04.269Z,15.50
2018-09-19T02:29:35.742Z,15.26
2018-09-19T02:32:09.659Z,15.26
2018-09-19T02:34:41.267Z,15.27
2018-09-19T02:37:14.478Z,15.26
2018-09-19T02:39:48.362Z,15.20
2018-09-19T02:42:21.684Z,15.25
2018-09-19T02:47:32.006Z,15.10
2018-09-19T02:50:06.508Z,15.04
2018-09-19T02:52:42.128Z,15.10
2018-09-19T02:55:15.379Z,15.01
2018-09-19T02:57:48.746Z,14.90
2018-09-19T03:00:21.319Z,14.81
2018-09-19T03:02:54.489Z,14.76
2018-09-19T03:08:03.686Z,14.76
2018-09-19T03:10:35.916Z,14.73
2018-09-19T03:13:08.974Z,14.72
2018-09-19T03:15:42.746Z,14.67
2018-09-19T03:18:18.171Z,14.65
2018-09-19T03:20:50.978Z,14.64
2018-09-19T03:23:24.014Z,14.58
2018-09-19T03:28:34.451Z,14.50
2018-09-19T03:31:07.037Z,14.45
2018-09-19T03:36:17.142Z,14.33
2018-09-19T03:41:27.075Z,14.44
2018-09-19T03:44:00.277Z,14.38
2018-09-19T03:49:08.842Z,14.48
2018-09-19T03:51:43.515Z,14.46
2018-09-19T03:54:15.997Z,14.27
2018-09-19T03:56:52.227Z,14.20
2018-09-19T03:59:25.694Z,14.23
2018-09-19T04:01:59.718Z,14.16
2018-09-19T04:07:09.918Z,14.07
2018-09-19T04:09:45.103Z,13.90
2018-09-19T04:14:54.216Z,13.97
2018-09-19T04:17:27.268Z,14.02
2018-09-19T04:20:00.471Z,13.94
2018-09-19T04:22:34.638Z,13.99
2018-09-19T04:25:08.232Z,14.01
2018-09-19T04:27:41.753Z,13.91
2018-09-19T04:32:53.792Z,14.01
2018-09-19T04:35:27.184Z,14.02
2018-09-19T04:38:00.468Z,14.01
2018-09-19T04:43:10.307Z,13.92
2018-09-19T04:45:43.670Z,13.84
2018-09-19T04:48:18.808Z,13.70
2018-09-19T04:50:53.023Z,13.62
2018-09-19T04:53:26.442Z,13.54
2018-09-19T04:56:00.461Z,13.53
2018-09-19T04:58:35.331Z,13.44
2018-09-19T05:01:09.948Z,13.37
2018-09-19T05:03:43.931Z,13.32
2018-09-19T05:06:16.527Z,13.31
2018-09-19T05:08:50.802Z,13.37
2018-09-19T05:11:24.111Z,13.38
2018-09-19T05:13:58.406Z,13.28
2018-09-19T05:16:31.979Z,13.34
2018-09-19T05:19:05.431Z,13.34
2018-09-19T05:21:38.241Z,13.40
2018-09-19T05:24:11.521Z,13.44
2018-09-19T05:26:45.899Z,13.47
2018-09-19T05:31:56.572Z,13.65
2018-09-19T05:34:32.175Z,13.76
2018-09-19T05:37:06.411Z,13.77
2018-09-19T05:42:18.373Z,13.90
2018-09-19T05:44:51.417Z,13.87
2018-09-19T05:47:26.146Z,13.93
2018-09-19T05:52:36.552Z,14.08
2018-09-19T05:55:10.394Z,14.23
2018-09-19T05:57:44.635Z,14.39
2018-09-19T06:00:17.927Z,14.39
2018-09-19T06:02:53.300Z,14.40
2018-09-19T06:05:27.402Z,14.51
2018-09-19T06:10:38.835Z,14.60
2018-09-19T06:13:12.500Z,14.78
2018-09-19T06:15:45.933Z,14.94
2018-09-19T06:18:19.004Z,14.91
2018-09-19T06:20:52.039Z,14.94
2018-09-19T06:23:27.279Z,15.04
2018-09-19T06:26:01.432Z,15.14
2018-09-19T06:28:36.564Z,15.24
2018-09-19T06:31:10.040Z,15.38
2018-09-19T06:33:46.174Z,15.54
2018-09-19T06:36:21.468Z,15.55
2018-09-19T06:38:54.942Z,15.65
2018-09-19T06:41:28.023Z,15.74
2018-09-19T06:44:05.186Z,15.78
2018-09-19T06:46:37.949Z,15.81
2018-09-19T06:49:11.167Z,15.90
2018-09-19T06:51:44.197Z,15.93
2018-09-19T06:54:17.938Z,15.96
2018-09-19T06:56:51.821Z,16.03
2018-09-19T06:59:25.414Z,16.18
2018-09-19T07:01:58.198Z,16.27
2018-09-19T07:04:27.223Z,16.32
2018-09-19T07:09:33.977Z,16.66
2018-09-19T07:14:38.769Z,16.98
2018-09-19T07:17:07.811Z,17.20
2018-09-19T07:19:36.863Z,17.34
2018-09-19T07:22:05.907Z,17.43
2018-09-19T07:24:34.950Z,17.56
2018-09-19T07:27:04.016Z,17.68
2018-09-19T07:29:33.057Z,17.83
2018-09-19T07:32:04.043Z,18.05
2018-09-19T07:34:33.100Z,18.34
2018-09-19T07:37:02.134Z,18.49
2018-09-19T07:39:31.175Z,18.59
2018-09-19T07:42:00.216Z,18.83
2018-09-19T07:44:30.439Z,19.09
2018-09-19T07:46:59.569Z,19.28
2018-09-19T07:49:28.625Z,19.51
2018-09-19T07:51:57.765Z,19.69
2018-09-19T07:57:02.571Z,19.91
2018-09-19T07:59:31.612Z,20.06
2018-09-19T08:02:00.665Z,20.22
2018-09-19T08:04:29.726Z,20.51
2018-09-19T08:06:58.753Z,20.66
2018-09-19T08:12:03.597Z,21.35
2018-09-19T08:14:32.804Z,21.58
2018-09-19T08:17:01.923Z,21.81
2018-09-19T08:19:32.324Z,21.92
2018-09-19T08:22:03.340Z,21.82
2018-09-19T08:27:08.145Z,22.06
2018-09-19T08:29:37.186Z,21.92
2018-09-19T08:32:06.336Z,21.88
2018-09-19T08:34:35.372Z,22.17
2018-09-19T08:37:04.429Z,22.33
2018-09-19T08:39:35.428Z,22.16
2018-09-19T08:44:40.227Z,22.75
2018-09-19T08:47:09.346Z,23.29
2018-09-19T08:49:38.371Z,23.27
2018-09-19T08:54:43.209Z,25.45
2018-09-19T08:57:12.237Z,27.04
2018-09-19T08:59:42.257Z,29.62
2018-09-19T09:02:11.413Z,30.77
2018-09-19T09:04:40.475Z,31.61
2018-09-19T09:07:09.558Z,32.53
2018-09-19T09:12:14.552Z,32.68
2018-09-19T09:14:43.533Z,30.54
2018-09-19T09:17:12.619Z,28.55
2018-09-19T09:19:41.712Z,28.05
2018-09-19T09:22:11.714Z,28.16
2018-09-19T09:29:52.374Z,25.36
2018-09-19T09:32:21.465Z,25.55
2018-09-19T09:34:53.580Z,25.37
2018-09-19T09:37:22.702Z,25.46
2018-09-19T09:39:51.717Z,25.08
2018-09-19T09:42:22.734Z,25.22
2018-09-19T09:44:51.782Z,25.20
2018-09-19T09:47:20.879Z,25.41
2018-09-19T09:49:49.917Z,25.34
2018-09-19T09:52:19.924Z,25.56
2018-09-19T09:57:25.731Z,26.03
2018-09-19T09:59:54.769Z,25.76
2018-09-19T10:02:23.822Z,25.97
2018-09-19T10:04:52.885Z,26.00
2018-09-19T10:07:21.940Z,26.30
2018-09-19T10:09:50.963Z,27.73
2018-09-19T10:12:20.012Z,29.69
2018-09-19T10:14:49.242Z,31.38
2018-09-19T10:17:26.293Z,33.25
2018-09-19T10:22:31.209Z,36.84
2018-09-19T10:25:00.252Z,39.65
2018-09-19T10:27:29.448Z,39.97
2018-09-19T10:29:58.502Z,38.32
2018-09-19T10:32:28.569Z,36.55
2018-09-19T10:34:57.625Z,37.03
2018-09-19T10:37:26.676Z,37.84
2018-09-19T10:39:55.729Z,34.16
2018-09-19T10:45:02.112Z,34.49
2018-09-19T10:47:31.159Z,33.35
2018-09-19T10:50:00.210Z,31.55
2018-09-19T10:52:29.281Z,31.10
2018-09-19T10:54:58.375Z,31.88
2018-09-19T10:57:28.411Z,33.13
2018-09-19T10:59:57.471Z,33.73
2018-09-19T11:02:30.881Z,31.78
2018-09-19T11:04:59.936Z,32.36
2018-09-19T11:07:28.997Z,33.05
2018-09-19T11:09:58.048Z,33.39
2018-09-19T11:12:27.105Z,33.45
2018-09-19T11:14:56.163Z,36.10
2018-09-19T11:17:25.211Z,37.30
2018-09-19T11:19:54.260Z,36.42
2018-09-19T11:22:23.323Z,39.25
2018-09-19T11:24:53.373Z,41.13
2018-09-19T11:27:22.456Z,42.18
2018-09-19T11:29:52.488Z,42.50
2018-09-19T11:32:21.576Z,41.56
2018-09-19T11:34:50.618Z,42.54
2018-09-19T11:37:19.679Z,42.15
2018-09-19T11:39:48.736Z,42.98
2018-09-19T11:50:05.009Z,43.64
2018-09-19T11:52:34.093Z,46.02
2018-09-19T11:57:39.352Z,44.48
2018-09-19T12:00:09.445Z,45.80
2018-09-19T12:02:38.486Z,45.59
2018-09-19T12:05:07.580Z,42.63
2018-09-19T12:07:36.627Z,42.14
2018-09-19T12:10:05.701Z,40.95
2018-09-19T12:12:35.814Z,40.35
2018-09-19T12:15:06.798Z,44.40
2018-09-19T12:17:37.945Z,46.49
2018-09-19T12:20:07.019Z,47.44
2018-09-19T12:22:39.112Z,44.62
2018-09-19T12:25:08.175Z,45.10
2018-09-19T12:27:38.222Z,44.36
2018-09-19T12:30:07.474Z,43.17
2018-09-19T12:32:36.537Z,41.64
2018-09-19T12:35:06.542Z,39.46
2018-09-19T12:37:35.604Z,38.96
2018-09-19T12:42:40.379Z,40.54
2018-09-19T12:45:10.415Z,42.12
2018-09-19T12:47:39.552Z,42.45
2018-09-19T12:50:08.603Z,42.53
2018-09-19T12:52:37.673Z,41.96
2018-09-19T12:55:06.723Z,38.99
2018-09-19T12:57:35.766Z,34.99
2018-09-19T13:00:04.819Z,32.62
2018-09-19T13:02:33.861Z,32.80
2018-09-19T13:05:03.929Z,31.51
2018-09-19T13:07:33.289Z,29.37
2018-09-19T13:10:02.344Z,29.75
2018-09-19T13:12:33.396Z,30.71
2018-09-19T13:15:02.457Z,30.96
2018-09-19T13:17:31.518Z,33.36
2018-09-19T13:20:00.563Z,35.76
2018-09-19T13:25:05.990Z,38.15
2018-09-19T13:27:35.047Z,32.70
2018-09-19T13:30:05.054Z,34.45
2018-09-19T13:32:34.112Z,36.94
2018-09-19T13:37:39.930Z,37.13
2018-09-19T13:40:08.972Z,35.04
2018-09-19T13:42:38.124Z,33.94
2018-09-19T13:45:07.217Z,35.38
2018-09-19T13:47:36.296Z,37.59
2018-09-19T13:50:05.318Z,37.35
2018-09-19T13:55:14.865Z,35.17
2018-09-19T14:00:20.709Z,38.56
2018-09-19T14:05:25.560Z,41.42
2018-09-19T14:07:54.622Z,42.22
2018-09-19T14:10:27.229Z,42.15
2018-09-19T14:12:56.273Z,42.59
2018-09-19T14:18:01.205Z,43.62
2018-09-19T14:20:30.334Z,43.27
2018-09-19T14:22:59.453Z,40.30
2018-09-19T14:25:28.496Z,41.18
2018-09-19T14:27:57.584Z,38.99
2018-09-19T14:30:26.645Z,39.35
2018-09-19T14:32:56.000Z,41.50
2018-09-19T14:35:26.111Z,41.69
2018-09-19T14:37:55.123Z,42.02
2018-09-19T14:40:24.165Z,42.47
2018-09-19T14:42:53.213Z,43.22
2018-09-19T14:45:22.281Z,43.04
2018-09-19T14:47:51.375Z,43.21
2018-09-19T14:52:56.296Z,41.93
2018-09-19T14:55:25.376Z,39.52
2018-09-19T14:57:54.417Z,40.21
2018-09-19T15:00:23.561Z,40.94
2018-09-19T15:05:37.396Z,41.76
2018-09-19T15:08:06.684Z,40.72
2018-09-19T15:10:35.743Z,36.39
2018-09-19T15:13:05.791Z,36.80
2018-09-19T15:15:35.817Z,38.88
2018-09-19T15:18:04.890Z,38.28
2018-09-19T15:20:34.004Z,36.86
2018-09-19T15:23:03.024Z,35.42
2018-09-19T15:25:32.074Z,35.51
2018-09-19T15:28:01.197Z,34.65
2018-09-19T15:33:07.090Z,33.98
2018-09-19T15:35:36.146Z,33.58
2018-09-19T15:38:07.262Z,32.35
2018-09-19T15:40:36.321Z,32.54
2018-09-19T15:48:17.034Z,31.68
2018-09-19T15:50:46.117Z,31.44
2018-09-19T15:53:15.158Z,31.01
2018-09-19T15:55:45.162Z,30.42
2018-09-19T15:58:14.215Z,30.27
2018-09-19T16:03:19.079Z,29.56
2018-09-19T16:05:48.171Z,29.32
2018-09-19T16:08:17.216Z,29.10
2018-09-19T16:10:47.212Z,28.59
2018-09-19T16:13:16.281Z,28.31
2018-09-19T16:15:45.333Z,27.84
2018-09-19T16:18:14.461Z,27.83
2018-09-19T16:20:43.521Z,27.39
2018-09-19T16:23:13.537Z,27.12
2018-09-19T16:25:43.566Z,26.96
2018-09-19T16:28:12.621Z,26.40
2018-09-19T16:30:41.664Z,26.17
2018-09-19T16:33:12.714Z,25.92
2018-09-19T16:35:41.765Z,25.66
2018-09-19T16:38:12.780Z,25.48
2018-09-19T16:40:41.839Z,25.24
2018-09-19T16:43:10.966Z,24.99
2018-09-19T16:45:40.030Z,24.88
2018-09-19T16:48:09.032Z,24.70
2018-09-19T16:50:38.099Z,24.49
2018-09-19T16:53:07.275Z,24.30
2018-09-19T16:55:37.149Z,24.24
2018-09-19T16:58:06.208Z,23.99
2018-09-19T17:00:35.253Z,23.80
2018-09-19T17:03:04.313Z,23.55
2018-09-19T17:05:33.367Z,23.30
2018-09-19T17:08:02.413Z,23.14
2018-09-19T17:10:31.467Z,22.95
2018-09-19T17:13:01.115Z,22.80
2018-09-19T17:15:30.334Z,22.70
2018-09-19T17:17:59.239Z,22.59
2018-09-19T17:20:28.269Z,22.09
2018-09-19T17:22:57.325Z,21.70
2018-09-19T17:25:26.352Z,21.59
2018-09-19T17:30:33.143Z,21.53
2018-09-19T17:35:37.945Z,21.01
2018-09-19T17:40:43.778Z,21.04
2018-09-19T17:45:48.765Z,20.93
2018-09-19T17:48:17.824Z,20.65
2018-09-19T17:50:46.869Z,20.48
2018-09-19T17:55:52.897Z,20.16
2018-09-19T17:58:22.976Z,19.81
2018-09-19T18:00:52.997Z,19.72
2018-09-19T18:03:21.985Z,19.62
2018-09-19T18:08:26.849Z,19.67
2018-09-19T18:10:56.906Z,19.45
2018-09-19T18:13:25.968Z,19.31
2018-09-19T18:15:55.022Z,19.23
2018-09-19T18:18:24.171Z,19.23
2018-09-19T18:23:29.021Z,19.37
2018-09-19T18:28:33.869Z,19.22
2018-09-19T18:33:39.964Z,19.03
2018-09-19T18:36:09.022Z,18.94
2018-09-19T18:38:39.015Z,18.81
2018-09-19T18:41:10.062Z,18.75
2018-09-19T18:43:39.117Z,18.57
2018-09-19T18:46:09.225Z,18.38
2018-09-19T18:48:38.288Z,18.50
2018-09-19T18:51:07.338Z,18.26
2018-09-19T18:53:36.378Z,18.09
2018-09-19T18:56:05.433Z,18.05
2018-09-19T18:58:34.479Z,18.02
2018-09-19T19:01:03.529Z,18.12
2018-09-19T19:03:33.610Z,18.08
2018-09-19T19:08:38.889Z,18.07
2018-09-19T19:11:09.905Z,18.01
2018-09-19T19:13:38.957Z,17.97
2018-09-19T19:16:08.010Z,17.82
2018-09-19T19:18:37.143Z,17.81
2018-09-19T19:21:06.138Z,17.76
2018-09-19T19:23:35.194Z,17.74
2018-09-19T19:26:05.215Z,17.64
2018-09-19T19:28:34.272Z,17.56
2018-09-19T19:31:03.325Z,17.43
2018-09-19T19:33:32.373Z,17.44
2018-09-19T19:36:01.430Z,17.32
2018-09-19T19:38:30.496Z,17.37
2018-09-19T19:40:59.581Z,17.41
2018-09-19T19:43:28.646Z,17.47
2018-09-19T19:45:57.725Z,17.42
2018-09-19T19:48:26.790Z,17.39
2018-09-19T19:50:55.837Z,17.29
2018-09-19T19:53:26.905Z,17.11
2018-09-19T19:55:56.005Z,17.01
2018-09-19T19:58:26.079Z,16.98
2018-09-19T20:00:55.116Z,16.99
2018-09-19T20:05:59.982Z,16.92
2018-09-19T20:08:29.045Z,16.95
2018-09-19T20:10:58.130Z,17.06
2018-09-19T20:13:27.194Z,16.93
2018-09-19T20:15:56.307Z,16.91
2018-09-19T20:18:25.377Z,16.91
2018-09-19T20:20:54.478Z,16.82
2018-09-19T20:23:23.542Z,16.91
2018-09-19T20:25:52.613Z,16.92
2018-09-19T20:28:21.668Z,16.74
2018-09-19T20:30:50.741Z,16.61
2018-09-19T20:33:20.735Z,16.56
2018-09-19T20:35:49.800Z,16.53
2018-09-19T20:40:54.643Z,16.72
2018-09-19T20:43:23.706Z,16.62
2018-09-19T20:48:28.499Z,16.60
2018-09-19T20:50:57.565Z,16.65
2018-09-19T20:53:26.646Z,16.68
2018-09-19T20:56:00.270Z,16.59
2018-09-19T20:58:32.790Z,16.53
2018-09-19T21:01:03.128Z,16.46
2018-09-19T21:03:32.635Z,16.48
2018-09-19T21:06:06.405Z,16.52
2018-09-19T21:08:38.906Z,16.39
2018-09-19T21:11:13.905Z,16.37
2018-09-19T21:13:46.833Z,16.38
2018-09-19T21:18:51.997Z,16.15
2018-09-19T21:21:21.052Z,15.98
2018-09-19T21:23:51.054Z,15.83
2018-09-19T21:26:20.105Z,15.77
2018-09-19T21:28:49.211Z,15.72
2018-09-19T21:31:18.288Z,15.71
2018-09-19T21:36:23.125Z,15.83
2018-09-19T21:38:52.183Z,15.88
2018-09-19T21:41:21.240Z,15.89
2018-09-19T21:43:50.341Z,15.87
2018-09-19T21:46:19.398Z,15.93
2018-09-19T21:51:24.278Z,16.02
2018-09-19T21:53:53.346Z,16.12
2018-09-19T21:58:58.132Z,16.38
2018-09-19T22:01:27.247Z,16.47
2018-09-19T22:03:56.333Z,16.46
2018-09-19T22:06:25.883Z,16.52
2018-09-19T22:08:59.580Z,16.56
2018-09-19T22:14:06.513Z,16.67
2018-09-19T22:16:35.603Z,16.66
2018-09-19T22:19:04.648Z,16.62
2018-09-19T22:21:33.697Z,16.54
2018-09-19T22:24:02.775Z,16.58
2018-09-19T22:26:31.837Z,16.56
2018-09-19T22:29:00.924Z,16.49
2018-09-19T22:31:32.871Z,16.55
2018-09-19T22:34:03.054Z,16.49
2018-09-19T22:36:33.187Z,16.41
2018-09-19T22:39:02.259Z,16.42
2018-09-19T22:41:31.332Z,16.33
2018-09-19T22:46:37.179Z,16.21
2018-09-19T22:49:07.191Z,16.29
2018-09-19T22:51:36.256Z,16.29
2018-09-19T22:54:05.321Z,16.28
2018-09-19T22:56:34.386Z,16.28
2018-09-19T22:59:03.459Z,16.28
2018-09-19T23:01:32.511Z,16.32
2018-09-19T23:04:02.565Z,16.37
2018-09-19T23:06:31.613Z,16.43
2018-09-19T23:11:36.516Z,16.58
2018-09-19T23:14:05.570Z,16.64
2018-09-19T23:16:34.761Z,16.70
2018-09-19T23:19:04.845Z,16.56
2018-09-19T23:21:34.906Z,16.46
2018-09-19T23:26:39.811Z,16.55
2018-09-19T23:29:08.862Z,16.57
2018-09-19T23:31:38.881Z,16.54
2018-09-19T23:34:09.932Z,16.51
2018-09-19T23:39:14.721Z,16.49
2018-09-19T23:41:43.799Z,16.55
2018-09-19T23:44:12.865Z,16.53
2018-09-19T23:46:41.914Z,16.48
2018-09-19T23:49:11.074Z,16.49
2018-09-19T23:51:40.133Z,16.46
2018-09-19T23:54:09.253Z,16.52
2018-09-19T23:56:38.348Z,16.48
2018-09-19T23:59:07.394Z,16.49
